createdAt,value
2024-01-14T00:00:07.956Z,99608.63
2024-01-14T00:02:38.564Z,99561.66
2024-01-14T00:05:07.887Z,99338.75
2024-01-14T00:07:37.346Z,99682.97
2024-01-14T00:10:06.554Z,99489.94
2024-01-14T00:12:35.060Z,99822.41
2024-01-14T00:15:03.434Z,99762.75
2024-01-14T00:17:34.161Z,99767.25
2024-01-14T00:20:05.259Z,99624.72
2024-01-14T00:22:33.243Z,99762.81
2024-01-14T00:25:01.187Z,99700.53
2024-01-14T00:27:29.290Z,99748.53
2024-01-14T00:29:59.490Z,99574.38
2024-01-14T00:32:27.543Z,99780.94
2024-01-14T00:34:55.807Z,99891.63
2024-01-14T00:37:25.866Z,99556.84
2024-01-14T00:39:53.914Z,99732.56
2024-01-14T00:42:22.238Z,99502.97
2024-01-14T00:44:50.411Z,99661.19
2024-01-14T00:47:18.543Z,99680.94
2024-01-14T00:49:46.642Z,99442.41
2024-01-14T00:52:14.868Z,99414.75
2024-01-14T00:54:44.461Z,99645.19
2024-01-14T00:57:12.547Z,99585.16
2024-01-14T00:59:40.623Z,99332.34
2024-01-14T01:02:08.757Z,99440.91
2024-01-14T01:04:36.725Z,99599.16
2024-01-14T01:07:05.109Z,99664.81
2024-01-14T01:09:33.282Z,99690.38
2024-01-14T01:12:02.848Z,99145.09
2024-01-14T01:14:31.712Z,99295.00
2024-01-14T01:16:59.660Z,99565.22
2024-01-14T01:19:28.318Z,99616.53
2024-01-14T01:21:56.306Z,99684.28
2024-01-14T01:24:24.232Z,99374.41
2024-01-14T01:26:52.782Z,99576.13
2024-01-14T01:29:22.773Z,99536.59
2024-01-14T01:31:55.730Z,99539.13
2024-01-14T01:34:26.748Z,99437.91
2024-01-14T01:36:54.885Z,99729.28
2024-01-14T01:39:22.936Z,99732.75
2024-01-14T01:41:51.346Z,99682.63
2024-01-14T01:44:19.417Z,99676.66
2024-01-14T01:46:49.012Z,99773.47
2024-01-14T01:49:17.156Z,99475.84
2024-01-14T01:51:48.412Z,99393.75
2024-01-14T01:54:16.778Z,99556.53
2024-01-14T01:56:44.728Z,99581.94
2024-01-14T01:59:12.666Z,99462.47
2024-01-14T02:01:40.804Z,99579.25
2024-01-14T02:04:10.474Z,99456.91
2024-01-14T02:06:38.906Z,99383.91
2024-01-14T02:09:08.883Z,99463.31
2024-01-14T02:11:37.003Z,99187.69
2024-01-14T02:14:04.869Z,99456.19
2024-01-14T02:16:32.864Z,99650.34
2024-01-14T02:19:01.125Z,99493.97
2024-01-14T02:21:32.697Z,99458.31
2024-01-14T02:24:04.539Z,99432.72
2024-01-14T02:26:34.003Z,99691.31
2024-01-14T02:29:04.508Z,99543.44
2024-01-14T02:31:33.777Z,99318.56
2024-01-14T02:34:02.422Z,99628.91
2024-01-14T02:36:30.562Z,99480.94
2024-01-14T02:38:58.760Z,99566.06
2024-01-14T02:41:27.016Z,99550.56
2024-01-14T02:43:56.525Z,99373.94
2024-01-14T02:46:24.480Z,99661.03
2024-01-14T02:48:52.410Z,99519.28
2024-01-14T02:51:22.753Z,99557.78
2024-01-14T02:53:51.773Z,99315.13
2024-01-14T02:56:19.910Z,99532.66
2024-01-14T02:58:47.914Z,99629.88
2024-01-14T03:01:19.021Z,99079.78
2024-01-14T03:03:47.032Z,99446.06
2024-01-14T03:06:15.406Z,99041.78
2024-01-14T03:08:49.701Z,99474.59
2024-01-14T03:11:17.828Z,99385.25
2024-01-14T03:13:45.876Z,99567.66
2024-01-14T03:16:13.985Z,99581.97
2024-01-14T03:18:43.621Z,99226.59
2024-01-14T03:21:19.018Z,99573.72
2024-01-14T03:23:47.022Z,99555.84
2024-01-14T03:26:15.410Z,99251.09
2024-01-14T03:28:43.555Z,99243.91
2024-01-14T03:31:15.751Z,99300.47
2024-01-14T03:33:45.344Z,99356.13
2024-01-14T03:36:15.249Z,99363.97
2024-01-14T03:38:43.507Z,99362.75
2024-01-14T03:41:11.581Z,99674.81
2024-01-14T03:43:39.605Z,99451.31
2024-01-14T03:46:23.126Z,99490.66
2024-01-14T03:48:52.678Z,99255.00
2024-01-14T03:51:20.747Z,99452.69
2024-01-14T03:53:48.798Z,99567.56
2024-01-14T03:56:16.846Z,99705.78
2024-01-14T03:58:44.872Z,99400.56
2024-01-14T04:01:17.616Z,99252.69
2024-01-14T04:03:45.840Z,99441.69
2024-01-14T04:06:15.549Z,99343.66
2024-01-14T04:08:43.697Z,99552.03
2024-01-14T04:11:11.695Z,99518.16
2024-01-14T04:13:39.642Z,99345.88
2024-01-14T04:16:08.949Z,99373.34
2024-01-14T04:18:37.486Z,99647.47
2024-01-14T04:21:06.102Z,99366.03
2024-01-14T04:23:35.510Z,99583.16
2024-01-14T04:26:07.102Z,99049.91
2024-01-14T04:28:35.075Z,99269.94
2024-01-14T04:31:03.215Z,99316.94
2024-01-14T04:33:31.374Z,99341.59
2024-01-14T04:35:59.409Z,99462.22
2024-01-14T04:38:27.303Z,99472.81
2024-01-14T04:40:56.765Z,99210.59
2024-01-14T04:43:24.749Z,99166.47
2024-01-14T04:45:52.598Z,99467.19
2024-01-14T04:48:20.802Z,99560.59
2024-01-14T04:50:48.908Z,99468.91
2024-01-14T04:53:16.786Z,99366.88
2024-01-14T04:55:44.783Z,99211.72
2024-01-14T04:58:14.196Z,99303.94
2024-01-14T05:00:42.189Z,99552.00
2024-01-14T05:03:10.279Z,99612.44
2024-01-14T05:05:38.271Z,99476.41
2024-01-14T05:08:06.707Z,99259.84
2024-01-14T05:10:34.663Z,99372.94
2024-01-14T05:13:02.542Z,99516.47
2024-01-14T05:15:31.867Z,99208.34
2024-01-14T05:18:00.226Z,99536.41
2024-01-14T05:20:28.668Z,99143.41
2024-01-14T05:22:56.687Z,99403.66
2024-01-14T05:25:24.551Z,99209.47
2024-01-14T05:27:52.577Z,99217.66
2024-01-14T05:30:20.881Z,99017.69
2024-01-14T05:32:50.288Z,99282.94
2024-01-14T05:35:18.456Z,99539.09
2024-01-14T05:37:46.434Z,99142.50
2024-01-14T05:40:14.659Z,99306.38
2024-01-14T05:42:43.086Z,99125.16
2024-01-14T05:45:12.247Z,99481.16
2024-01-14T05:47:40.512Z,99358.03
2024-01-14T05:50:10.884Z,99271.25
2024-01-14T05:52:38.815Z,99404.25
2024-01-14T05:55:06.797Z,99404.47
2024-01-14T05:57:34.780Z,99385.91
2024-01-14T06:00:02.781Z,99384.38
2024-01-14T06:02:30.845Z,99195.59
2024-01-14T06:04:58.910Z,99420.56
2024-01-14T06:07:28.321Z,99466.75
2024-01-14T06:09:56.199Z,99461.22
2024-01-14T06:12:24.100Z,99319.38
2024-01-14T06:14:52.096Z,99118.34
2024-01-14T06:17:19.954Z,99040.13
2024-01-14T06:19:47.959Z,99237.31
2024-01-14T06:22:15.842Z,99508.69
2024-01-14T06:24:45.938Z,99410.84
2024-01-14T06:27:13.790Z,99374.03
2024-01-14T06:29:41.892Z,99353.00
2024-01-14T06:32:09.659Z,99111.66
2024-01-14T06:34:37.564Z,99260.41
2024-01-14T06:37:06.100Z,99444.53
2024-01-14T06:39:33.927Z,99122.16
2024-01-14T06:42:03.145Z,99341.16
2024-01-14T06:44:30.952Z,99488.84
2024-01-14T06:46:58.737Z,99455.06
2024-01-14T06:49:26.564Z,99344.63
2024-01-14T06:51:54.443Z,99406.66
2024-01-14T06:54:22.301Z,99278.13
2024-01-14T06:56:50.078Z,99294.97
2024-01-14T06:59:20.408Z,99407.16
2024-01-14T07:01:48.489Z,99210.94
2024-01-14T07:04:16.985Z,99129.09
2024-01-14T07:06:44.919Z,99439.25
2024-01-14T07:09:13.862Z,99193.72
2024-01-14T07:11:41.955Z,99219.56
2024-01-14T07:14:09.818Z,99225.16
2024-01-14T07:16:38.969Z,99346.38
2024-01-14T07:19:07.035Z,99396.91
2024-01-14T07:21:34.999Z,99104.00
2024-01-14T07:24:03.016Z,99355.34
2024-01-14T07:26:30.952Z,99328.25
2024-01-14T07:28:58.854Z,99299.44
2024-01-14T07:31:29.006Z,99214.50
2024-01-14T07:33:58.646Z,99381.09
2024-01-14T07:36:26.684Z,99320.47
2024-01-14T07:38:55.308Z,99295.25
2024-01-14T07:41:23.205Z,99335.22
2024-01-14T07:43:50.982Z,99271.97
2024-01-14T07:46:19.817Z,99338.94
2024-01-14T07:48:47.729Z,99316.28
2024-01-14T07:51:17.046Z,99333.59
2024-01-14T07:53:44.875Z,99384.59
2024-01-14T07:56:12.817Z,99377.69
2024-01-14T07:58:40.556Z,99322.03
2024-01-14T08:01:08.485Z,99401.22
2024-01-14T08:03:37.685Z,99209.34
2024-01-14T08:06:06.479Z,99339.59
2024-01-14T08:08:35.813Z,99337.91
2024-01-14T08:11:03.631Z,99452.59
2024-01-14T08:13:31.463Z,99320.28
2024-01-14T08:16:02.698Z,99314.28
2024-01-14T08:18:32.565Z,99199.75
2024-01-14T08:21:01.354Z,99226.09
2024-01-14T08:23:30.967Z,99495.41
2024-01-14T08:26:00.293Z,99045.63
2024-01-14T08:28:28.150Z,99286.63
2024-01-14T08:30:56.039Z,99408.56
2024-01-14T08:33:24.056Z,99277.09
2024-01-14T08:35:52.102Z,99292.25
2024-01-14T08:38:20.271Z,99324.03
2024-01-14T08:40:48.095Z,99437.91
2024-01-14T08:43:17.498Z,99081.16
2024-01-14T08:45:45.367Z,99327.22
2024-01-14T08:48:14.554Z,99393.84
2024-01-14T08:50:42.556Z,99061.81
2024-01-14T08:53:10.404Z,99329.25
2024-01-14T08:55:38.244Z,99110.78
2024-01-14T08:58:05.969Z,99337.94
2024-01-14T09:00:35.272Z,99049.81
2024-01-14T09:03:03.167Z,99347.03
2024-01-14T09:05:31.015Z,99246.88
2024-01-14T09:07:58.782Z,99252.09
2024-01-14T09:10:26.485Z,99087.94
2024-01-14T09:12:54.153Z,99145.09
2024-01-14T09:15:22.097Z,99391.16
2024-01-14T09:17:52.676Z,99410.97
2024-01-14T09:20:21.125Z,99326.78
2024-01-14T09:22:48.961Z,99272.03
2024-01-14T09:25:17.129Z,99415.28
2024-01-14T09:27:44.930Z,99465.16
2024-01-14T09:30:14.258Z,99399.72
2024-01-14T09:32:42.437Z,99449.09
2024-01-14T09:35:12.030Z,99307.38
2024-01-14T09:37:39.910Z,99386.88
2024-01-14T09:40:09.042Z,99223.13
2024-01-14T09:42:36.998Z,99220.09
2024-01-14T09:45:06.863Z,99265.53
2024-01-14T09:47:35.181Z,99397.28
2024-01-14T09:50:04.496Z,99444.78
2024-01-14T09:52:33.864Z,99208.44
2024-01-14T09:55:01.899Z,99375.69
2024-01-14T09:57:30.771Z,99360.38
2024-01-14T09:59:59.305Z,99110.75
2024-01-14T10:02:28.127Z,99259.81
2024-01-14T10:04:55.928Z,99274.03
2024-01-14T10:07:23.816Z,99308.94
2024-01-14T10:09:53.482Z,99202.69
2024-01-14T10:12:21.301Z,99499.16
2024-01-14T10:14:58.411Z,99098.50
2024-01-14T10:17:26.207Z,99077.38
2024-01-14T10:19:54.750Z,99202.41
2024-01-14T10:22:22.837Z,99352.75
2024-01-14T10:24:55.149Z,99313.88
2024-01-14T10:27:34.429Z,99196.28
2024-01-14T10:30:06.994Z,99373.03
2024-01-14T10:33:15.096Z,99252.91
2024-01-14T10:35:26.627Z,99166.41
2024-01-14T10:37:54.620Z,99011.13
2024-01-14T10:40:23.812Z,98946.16
2024-01-14T10:42:51.606Z,99239.97
2024-01-14T10:45:19.851Z,99212.31
2024-01-14T10:47:49.540Z,99115.09
2024-01-14T10:50:19.105Z,99332.41
2024-01-14T10:52:50.635Z,99386.84
2024-01-14T10:55:28.276Z,99368.66
2024-01-14T10:57:56.075Z,99158.59
2024-01-14T11:00:24.198Z,99313.41
2024-01-14T11:02:52.212Z,99254.22
2024-01-14T11:05:20.195Z,99262.06
2024-01-14T11:07:48.129Z,99302.25
2024-01-14T11:10:16.280Z,99162.16
2024-01-14T11:12:49.105Z,99221.28
2024-01-14T11:15:23.264Z,98978.13
2024-01-14T11:17:55.841Z,99190.97
2024-01-14T11:20:32.200Z,99164.09
2024-01-14T11:23:07.425Z,98894.28
2024-01-14T11:25:36.249Z,99136.16
2024-01-14T11:28:07.666Z,99268.19
2024-01-14T11:30:51.170Z,99241.72
2024-01-14T11:33:29.183Z,99146.28
2024-01-14T11:35:57.601Z,99246.06
2024-01-14T11:38:35.644Z,99105.31
2024-01-14T11:41:25.643Z,99172.00
2024-01-14T11:43:55.782Z,99183.97
2024-01-14T11:46:52.616Z,99227.03
2024-01-14T11:49:25.557Z,99142.78
2024-01-14T11:51:54.067Z,99154.88
2024-01-14T11:54:22.965Z,99135.22
2024-01-14T11:56:50.841Z,98926.88
2024-01-14T11:59:34.163Z,98944.16
2024-01-14T12:02:16.099Z,99117.09
2024-01-14T12:04:47.330Z,98799.19
2024-01-14T12:07:21.813Z,98958.56
2024-01-14T12:09:54.367Z,99237.47
2024-01-14T12:12:23.731Z,99170.91
2024-01-14T12:14:53.936Z,98830.25
2024-01-14T12:17:21.992Z,99053.72
2024-01-14T12:19:57.822Z,99152.75
2024-01-14T12:22:26.315Z,99090.22
2024-01-14T12:24:54.303Z,98768.06
2024-01-14T12:27:22.476Z,98825.13
2024-01-14T12:29:50.632Z,98904.53
2024-01-14T12:32:20.234Z,99171.72
2024-01-14T12:34:51.182Z,99149.28
2024-01-14T12:37:19.236Z,98665.94
2024-01-14T12:39:47.310Z,98844.31
2024-01-14T12:42:15.426Z,99061.63
2024-01-14T12:44:45.077Z,99038.28
2024-01-14T12:47:13.378Z,99104.28
2024-01-14T12:49:42.848Z,98783.00
2024-01-14T12:52:11.602Z,99099.09
2024-01-14T12:54:40.502Z,99182.94
2024-01-14T12:59:39.496Z,99090.44
2024-01-14T13:02:07.614Z,98775.31
2024-01-14T13:04:35.707Z,98791.22
2024-01-14T13:07:12.304Z,99153.22
2024-01-14T13:09:41.885Z,98769.13
2024-01-14T13:12:10.439Z,98984.41
2024-01-14T13:14:50.722Z,98951.88
2024-01-14T13:17:18.855Z,99010.44
2024-01-14T13:19:47.459Z,99002.81
2024-01-14T13:22:17.316Z,98892.66
2024-01-14T13:24:45.531Z,99096.44
2024-01-14T13:27:14.001Z,98967.34
2024-01-14T13:29:42.220Z,98793.34
2024-01-14T13:32:10.593Z,98826.56
2024-01-14T13:34:38.771Z,99058.44
2024-01-14T13:37:06.937Z,99044.44
2024-01-14T13:39:36.441Z,98861.06
2024-01-14T13:42:04.575Z,99124.00
2024-01-14T13:44:32.610Z,99043.38
2024-01-14T13:47:01.039Z,98953.41
2024-01-14T13:49:29.422Z,98766.75
2024-01-14T13:51:57.664Z,99019.63
2024-01-14T13:54:25.820Z,98872.97
2024-01-14T13:56:56.088Z,98749.47
2024-01-14T13:59:27.222Z,99006.63
2024-01-14T14:01:58.984Z,98782.47
2024-01-14T14:04:28.173Z,98518.94
2024-01-14T14:06:56.569Z,98783.09
2024-01-14T14:09:26.580Z,99056.75
2024-01-14T14:11:56.479Z,99108.63
2024-01-14T14:14:24.636Z,98920.03
2024-01-14T14:16:52.713Z,98993.69
2024-01-14T14:19:23.077Z,99033.47
2024-01-14T14:21:59.683Z,98689.97
2024-01-14T14:24:33.289Z,99025.66
2024-01-14T14:27:09.743Z,98980.72
2024-01-14T14:29:38.331Z,99044.66
2024-01-14T14:32:09.014Z,98972.94
2024-01-14T14:34:40.087Z,98972.91
2024-01-14T14:37:09.502Z,98827.00
2024-01-14T14:39:37.742Z,98594.94
2024-01-14T14:42:08.388Z,98987.59
2024-01-14T14:44:37.163Z,98958.13
2024-01-14T14:47:18.640Z,98697.81
2024-01-14T14:49:48.858Z,98856.72
2024-01-14T14:52:17.562Z,98864.72
2024-01-14T14:54:46.950Z,98915.56
2024-01-14T14:57:17.152Z,98424.94
2024-01-14T14:59:47.761Z,98407.78
2024-01-14T15:02:21.650Z,98608.09
2024-01-14T15:04:53.093Z,98468.88
2024-01-14T15:07:21.593Z,98488.00
2024-01-14T15:09:50.331Z,98730.63
2024-01-14T15:12:19.929Z,98655.28
2024-01-14T15:14:51.918Z,98696.78
2024-01-14T15:17:24.125Z,98437.03
2024-01-14T15:19:54.876Z,98729.06
2024-01-14T15:22:23.358Z,98629.72
2024-01-14T15:25:00.212Z,98795.63
2024-01-14T15:27:35.147Z,98938.34
2024-01-14T15:30:03.904Z,98391.34
2024-01-14T15:32:57.281Z,98900.34
2024-01-14T15:35:35.506Z,98427.53
2024-01-14T15:38:11.772Z,98792.13
2024-01-14T15:40:47.770Z,98312.16
2024-01-14T15:43:37.188Z,98448.28
2024-01-14T15:46:07.623Z,98678.13
2024-01-14T15:48:44.183Z,98281.19
2024-01-14T15:51:17.170Z,98870.94
2024-01-14T15:54:01.040Z,98356.19
2024-01-14T15:56:42.520Z,98764.19
2024-01-14T15:59:22.538Z,98864.88
2024-01-14T16:01:58.174Z,98655.72
2024-01-14T16:04:49.071Z,98643.31
2024-01-14T16:07:20.988Z,98603.84
2024-01-14T16:09:53.015Z,98722.16
2024-01-14T16:12:41.389Z,98743.66
2024-01-14T16:15:11.897Z,98829.28
2024-01-14T16:17:42.311Z,98932.25
2024-01-14T16:20:14.749Z,98823.44
2024-01-14T16:22:55.109Z,98414.94
2024-01-14T16:25:24.078Z,98711.06
2024-01-14T16:28:01.685Z,98505.47
2024-01-14T16:30:32.550Z,98813.88
2024-01-14T16:33:03.311Z,98823.41
2024-01-14T16:35:40.486Z,98553.78
2024-01-14T16:38:17.501Z,98590.09
2024-01-14T16:40:56.436Z,98371.84
2024-01-14T16:43:30.113Z,98678.13
2024-01-14T16:46:04.218Z,98653.13
2024-01-14T16:48:44.508Z,98372.66
2024-01-14T16:51:14.189Z,98781.81
2024-01-14T16:53:46.737Z,98915.88
2024-01-14T16:56:19.185Z,98467.66
2024-01-14T16:58:48.394Z,98625.44
2024-01-14T17:01:20.537Z,98474.25
2024-01-14T17:03:51.005Z,98793.22
2024-01-14T17:06:25.546Z,98483.72
2024-01-14T17:09:02.634Z,98697.09
2024-01-14T17:12:09.380Z,98452.94
2024-01-14T17:18:01.347Z,98511.09
2024-01-14T17:20:40.694Z,98663.56
2024-01-14T17:23:32.691Z,98809.38
2024-01-14T17:26:08.279Z,98788.88
2024-01-14T17:28:42.733Z,98673.00
2024-01-14T17:31:27.253Z,98455.56
2024-01-14T17:34:24.206Z,98912.38
2024-01-14T17:36:56.871Z,98443.53
2024-01-14T17:39:39.098Z,98765.53
2024-01-14T17:42:17.617Z,98647.63
2024-01-14T17:44:58.956Z,98761.22
2024-01-14T17:47:37.416Z,98569.25
2024-01-14T17:50:31.349Z,98659.22
2024-01-14T17:56:16.137Z,98648.91
2024-01-14T17:59:00.413Z,98591.00
2024-01-14T18:01:28.697Z,98225.47
2024-01-14T18:03:56.962Z,98465.84
2024-01-14T18:06:26.442Z,98667.88
2024-01-14T18:08:56.305Z,98783.66
2024-01-14T18:11:24.277Z,98566.88
2024-01-14T18:13:52.467Z,98823.91
2024-01-14T18:16:20.524Z,98628.97
2024-01-14T18:18:56.108Z,98617.78
2024-01-14T18:21:25.229Z,98692.91
2024-01-14T18:23:54.650Z,98674.81
2024-01-14T18:26:25.514Z,98712.88
2024-01-14T18:28:53.658Z,98485.81
2024-01-14T18:31:26.393Z,98530.63
2024-01-14T18:33:54.625Z,98486.44
2024-01-14T18:36:25.055Z,98429.66
2024-01-14T18:38:54.321Z,98337.47
2024-01-14T18:41:22.298Z,98548.53
2024-01-14T18:43:50.407Z,98518.63
2024-01-14T18:46:18.476Z,98497.06
2024-01-14T18:48:46.537Z,98463.34
2024-01-14T18:51:14.615Z,98436.63
2024-01-14T18:53:44.319Z,98583.34
2024-01-14T18:56:13.804Z,98471.16
2024-01-14T18:58:41.846Z,98432.31
2024-01-14T19:01:10.099Z,98533.22
2024-01-14T19:03:40.479Z,98552.28
2024-01-14T19:06:08.797Z,98693.84
2024-01-14T19:08:38.055Z,98598.81
2024-01-14T19:11:07.176Z,98241.03
2024-01-14T19:13:36.453Z,98616.91
2024-01-14T19:16:04.749Z,98647.94
2024-01-14T19:18:33.341Z,98662.75
2024-01-14T19:21:04.093Z,98550.28
2024-01-14T19:23:34.261Z,98515.97
2024-01-14T19:26:04.538Z,98529.81
2024-01-14T19:28:32.609Z,98543.63
2024-01-14T19:31:04.640Z,98384.13
2024-01-14T19:33:33.977Z,98363.44
2024-01-14T19:36:03.627Z,98707.69
2024-01-14T19:38:31.785Z,98469.97
2024-01-14T19:41:00.969Z,98784.50
2024-01-14T19:43:33.344Z,98674.03
2024-01-14T19:46:34.422Z,98628.25
2024-01-14T19:49:03.625Z,98314.13
2024-01-14T19:51:35.304Z,98583.31
2024-01-14T19:54:04.983Z,98632.50
2024-01-14T19:56:40.000Z,98513.44
2024-01-14T19:59:07.096Z,98654.06
2024-01-14T20:01:36.557Z,98749.97
2024-01-14T20:04:05.588Z,98652.41
2024-01-14T20:06:33.580Z,98662.78
2024-01-14T20:09:03.965Z,98572.03
2024-01-14T20:11:32.109Z,98497.81
2024-01-14T20:14:04.495Z,98644.69
2024-01-14T20:16:33.976Z,98742.25
2024-01-14T20:19:06.900Z,98530.69
2024-01-14T20:21:35.428Z,98299.66
2024-01-14T20:24:10.933Z,98554.03
2024-01-14T20:26:38.776Z,98618.59
2024-01-14T20:29:06.919Z,98623.06
2024-01-14T20:31:36.082Z,98513.28
2024-01-14T20:34:06.135Z,98736.16
2024-01-14T20:36:34.210Z,98614.44
2024-01-14T20:39:02.940Z,98573.00
2024-01-14T20:41:31.184Z,98362.56
2024-01-14T20:44:05.218Z,98655.88
2024-01-14T20:46:33.686Z,98098.28
2024-01-14T20:49:01.927Z,98624.81
2024-01-14T20:51:33.990Z,98288.56
2024-01-14T20:54:10.797Z,98253.84
2024-01-14T20:56:40.690Z,98490.16
2024-01-14T20:59:18.279Z,98413.34
2024-01-14T21:01:48.331Z,98081.97
2024-01-14T21:04:17.222Z,98402.19
2024-01-14T21:07:02.689Z,98531.59
2024-01-14T21:09:32.201Z,98440.13
2024-01-14T21:12:01.128Z,98297.16
2024-01-14T21:14:30.058Z,98582.53
2024-01-14T21:16:59.473Z,98253.28
2024-01-14T21:19:32.408Z,98192.06
2024-01-14T21:22:08.469Z,98579.03
2024-01-14T21:24:37.113Z,98476.41
2024-01-14T21:27:08.815Z,98273.06
2024-01-14T21:29:37.969Z,98582.53
2024-01-14T21:32:11.925Z,98486.75
2024-01-14T21:34:40.750Z,98739.63
2024-01-14T21:37:13.666Z,98724.94
2024-01-14T21:39:44.014Z,98443.66
2024-01-14T21:42:26.727Z,98462.63
2024-01-14T21:44:58.166Z,98147.19
2024-01-14T21:47:26.909Z,98614.44
2024-01-14T21:49:57.297Z,98403.16
2024-01-14T21:52:27.436Z,98581.66
2024-01-14T21:55:01.790Z,98406.59
2024-01-14T21:57:35.897Z,98249.81
2024-01-14T22:00:13.858Z,98358.25
2024-01-14T22:02:42.742Z,98573.88
2024-01-14T22:05:11.099Z,98594.56
2024-01-14T22:07:40.421Z,98542.81
2024-01-14T22:10:09.233Z,98431.59
2024-01-14T22:12:37.362Z,98567.84
2024-01-14T22:15:08.397Z,98626.53
2024-01-14T22:17:37.104Z,98445.38
2024-01-14T22:20:08.822Z,98460.91
2024-01-14T22:22:37.252Z,98415.22
2024-01-14T22:25:12.087Z,98452.97
2024-01-14T22:27:40.777Z,98590.28
2024-01-14T22:30:15.483Z,98378.16
2024-01-14T22:32:44.150Z,98136.25
2024-01-14T22:35:13.623Z,98562.66
2024-01-14T22:37:41.849Z,98453.13
2024-01-14T22:40:12.196Z,98562.66
2024-01-14T22:42:40.441Z,98301.47
2024-01-14T22:45:08.401Z,98384.16
2024-01-14T22:47:36.777Z,98566.09
2024-01-14T22:50:05.426Z,98408.22
2024-01-14T22:52:33.363Z,98081.19
2024-01-14T22:55:01.288Z,98146.53
2024-01-14T22:57:32.553Z,98284.19
2024-01-14T23:00:00.774Z,98608.41
2024-01-14T23:02:28.956Z,98560.94
2024-01-14T23:04:56.923Z,98555.75
2024-01-14T23:07:25.001Z,98560.06
2024-01-14T23:09:53.597Z,97935.03
2024-01-14T23:12:21.590Z,98422.13
2024-01-14T23:14:53.902Z,98287.69
2024-01-14T23:17:22.195Z,98525.50
2024-01-14T23:19:53.046Z,98406.59
2024-01-14T23:22:21.007Z,98141.28
2024-01-14T23:24:50.813Z,98307.44
2024-01-14T23:27:18.778Z,98366.09
2024-01-14T23:29:47.423Z,98366.13
2024-01-14T23:32:23.075Z,98342.84
2024-01-14T23:34:51.343Z,98533.31
2024-01-14T23:37:19.413Z,98398.00
2024-01-14T23:39:50.526Z,98415.19
2024-01-14T23:42:18.714Z,98215.25
2024-01-14T23:44:46.735Z,98560.94
2024-01-14T23:47:14.665Z,98491.91
2024-01-14T23:49:46.946Z,98484.16
2024-01-14T23:52:14.910Z,98551.44
2024-01-14T23:54:42.829Z,98458.31
2024-01-14T23:57:10.862Z,98549.72
2024-01-14T23:59:37.963Z,98505.69
